Terminal Aerodrome Forecast
Issued by NWS Goodland, KS

Home | Current Version | Previous Version | Text Only | Print | Product List | Glossary On
Versions: 1 2 3 4 5 6 7 8 9 10 11 12 13 14 15
743
FTUS43 KGLD 031720
TAFGLD
TAF
KGLD 031720Z 0318/0418 34013G19KT P6SM SCT025 SCT040
      TEMPO 0318/0321 BKN025
     FM040000 30008KT P6SM SKC
     FM041300 35011KT P6SM SKC=

USA.gov is the U.S. government's official web portal to all federal, state and local government web resources and services.